sensor_id;sensor_type;location;lat;lon;timestamp;P1;durP1;ratioP1;P2;durP2;ratioP2
43527;SDS011;52359;42.658;23.320;2022-11-10T00:01:58;42.72;;;25.27;;
43527;SDS011;52359;42.658;23.320;2022-11-10T00:04:24;48.03;;;26.23;;
43527;SDS011;52359;42.658;23.320;2022-11-10T00:06:50;47.75;;;26.92;;
43527;SDS011;52359;42.658;23.320;2022-11-10T00:09:16;41.00;;;26.60;;
43527;SDS011;52359;42.658;23.320;2022-11-10T00:11:42;40.95;;;24.83;;
43527;SDS011;52359;42.658;23.320;2022-11-10T00:14:08;46.78;;;25.83;;
43527;SDS011;52359;42.658;23.320;2022-11-10T00:16:53;52.03;;;28.23;;
43527;SDS011;52359;42.658;23.320;2022-11-10T00:19:25;44.63;;;28.05;;
43527;SDS011;52359;42.658;23.320;2022-11-10T00:21:51;43.20;;;26.45;;
43527;SDS011;52359;42.658;23.320;2022-11-10T00:24:17;50.40;;;28.30;;
43527;SDS011;52359;42.658;23.320;2022-11-10T00:26:43;48.10;;;29.08;;
43527;SDS011;52359;42.658;23.320;2022-11-10T00:29:09;48.55;;;29.73;;
43527;SDS011;52359;42.658;23.320;2022-11-10T00:31:38;50.92;;;28.95;;
43527;SDS011;52359;42.658;23.320;2022-11-10T00:34:05;46.95;;;30.15;;
43527;SDS011;52359;42.658;23.320;2022-11-10T00:36:31;45.47;;;27.88;;
43527;SDS011;52359;42.658;23.320;2022-11-10T00:38:59;48.33;;;27.08;;
43527;SDS011;52359;42.658;23.320;2022-11-10T00:41:25;42.80;;;27.45;;
43527;SDS011;52359;42.658;23.320;2022-11-10T00:43:51;45.75;;;25.83;;
43527;SDS011;52359;42.658;23.320;2022-11-10T00:46:17;40.50;;;25.70;;
43527;SDS011;52359;42.658;23.320;2022-11-10T00:48:43;46.67;;;25.52;;
43527;SDS011;52359;42.658;23.320;2022-11-10T00:51:23;44.33;;;25.55;;
43527;SDS011;52359;42.658;23.320;2022-11-10T00:53:49;49.05;;;26.45;;
43527;SDS011;52359;42.658;23.320;2022-11-10T00:56:16;43.13;;;24.77;;
43527;SDS011;52359;42.658;23.320;2022-11-10T00:58:42;38.90;;;24.70;;
43527;SDS011;52359;42.658;23.320;2022-11-10T01:01:08;44.38;;;24.25;;
43527;SDS011;52359;42.658;23.320;2022-11-10T01:03:35;44.03;;;27.05;;
43527;SDS011;52359;42.658;23.320;2022-11-10T01:06:04;42.13;;;24.67;;
43527;SDS011;52359;42.658;23.320;2022-11-10T01:08:31;49.78;;;26.75;;
43527;SDS011;52359;42.658;23.320;2022-11-10T01:11:39;44.72;;;26.92;;
43527;SDS011;52359;42.658;23.320;2022-11-10T01:13:48;49.45;;;27.35;;
43527;SDS011;52359;42.658;23.320;2022-11-10T01:16:15;52.03;;;29.58;;
43527;SDS011;52359;42.658;23.320;2022-11-10T01:18:41;50.35;;;29.75;;
43527;SDS011;52359;42.658;23.320;2022-11-10T01:21:08;46.03;;;27.02;;
43527;SDS011;52359;42.658;23.320;2022-11-10T01:23:34;50.00;;;26.83;;
43527;SDS011;52359;42.658;23.320;2022-11-10T01:26:01;41.53;;;24.83;;
43527;SDS011;52359;42.658;23.320;2022-11-10T01:28:27;45.97;;;26.42;;
43527;SDS011;52359;42.658;23.320;2022-11-10T01:31:36;45.42;;;25.00;;
43527;SDS011;52359;42.658;23.320;2022-11-10T01:33:43;42.35;;;26.00;;
43527;SDS011;52359;42.658;23.320;2022-11-10T01:36:09;45.22;;;25.30;;
43527;SDS011;52359;42.658;23.320;2022-11-10T01:38:36;47.30;;;25.13;;
43527;SDS011;52359;42.658;23.320;2022-11-10T01:41:03;42.20;;;24.88;;
43527;SDS011;52359;42.658;23.320;2022-11-10T01:43:30;37.85;;;25.02;;
43527;SDS011;52359;42.658;23.320;2022-11-10T01:46:06;42.95;;;25.33;;
43527;SDS011;52359;42.658;23.320;2022-11-10T01:52:06;42.17;;;24.42;;
43527;SDS011;52359;42.658;23.320;2022-11-10T01:54:08;41.95;;;26.40;;
43527;SDS011;52359;42.658;23.320;2022-11-10T01:56:36;47.83;;;24.75;;
43527;SDS011;52359;42.658;23.320;2022-11-10T01:59:05;42.70;;;26.13;;
43527;SDS011;52359;42.658;23.320;2022-11-10T02:01:32;39.35;;;24.77;;
43527;SDS011;52359;42.658;23.320;2022-11-10T02:03:59;38.97;;;24.08;;
43527;SDS011;52359;42.658;23.320;2022-11-10T02:06:30;42.72;;;24.80;;
43527;SDS011;52359;42.658;23.320;2022-11-10T02:08:58;41.30;;;25.00;;
43527;SDS011;52359;42.658;23.320;2022-11-10T02:11:24;42.60;;;26.13;;
43527;SDS011;52359;42.658;23.320;2022-11-10T02:13:50;48.88;;;27.50;;
43527;SDS011;52359;42.658;23.320;2022-11-10T02:16:17;44.90;;;26.92;;
43527;SDS011;52359;42.658;23.320;2022-11-10T02:18:43;53.42;;;27.63;;
43527;SDS011;52359;42.658;23.320;2022-11-10T02:21:09;41.33;;;25.52;;
43527;SDS011;52359;42.658;23.320;2022-11-10T02:26:03;47.15;;;26.08;;
43527;SDS011;52359;42.658;23.320;2022-11-10T02:28:33;42.85;;;26.02;;
43527;SDS011;52359;42.658;23.320;2022-11-10T02:30:59;44.17;;;24.30;;
43527;SDS011;52359;42.658;23.320;2022-11-10T02:33:25;38.03;;;23.35;;
43527;SDS011;52359;42.658;23.320;2022-11-10T02:35:51;40.05;;;23.48;;
43527;SDS011;52359;42.658;23.320;2022-11-10T02:38:17;46.30;;;24.95;;
43527;SDS011;52359;42.658;23.320;2022-11-10T02:40:43;49.80;;;28.75;;
43527;SDS011;52359;42.658;23.320;2022-11-10T02:43:10;48.15;;;26.35;;
43527;SDS011;52359;42.658;23.320;2022-11-10T02:45:37;53.15;;;27.52;;
43527;SDS011;52359;42.658;23.320;2022-11-10T02:48:09;44.92;;;25.60;;
43527;SDS011;52359;42.658;23.320;2022-11-10T02:50:35;43.50;;;25.83;;
43527;SDS011;52359;42.658;23.320;2022-11-10T02:53:01;43.65;;;25.65;;
43527;SDS011;52359;42.658;23.320;2022-11-10T02:55:28;49.85;;;26.48;;
43527;SDS011;52359;42.658;23.320;2022-11-10T02:57:54;47.80;;;26.08;;
43527;SDS011;52359;42.658;23.320;2022-11-10T03:00:20;41.63;;;26.52;;
43527;SDS011;52359;42.658;23.320;2022-11-10T03:02:46;44.85;;;25.33;;
43527;SDS011;52359;42.658;23.320;2022-11-10T03:05:12;40.92;;;24.27;;
43527;SDS011;52359;42.658;23.320;2022-11-10T03:07:38;48.92;;;25.73;;
43527;SDS011;52359;42.658;23.320;2022-11-10T03:10:04;41.42;;;26.05;;
43527;SDS011;52359;42.658;23.320;2022-11-10T03:12:30;44.40;;;26.10;;
43527;SDS011;52359;42.658;23.320;2022-11-10T03:14:56;45.60;;;25.30;;
43527;SDS011;52359;42.658;23.320;2022-11-10T03:17:22;46.90;;;27.88;;
43527;SDS011;52359;42.658;23.320;2022-11-10T03:19:48;42.72;;;27.15;;
43527;SDS011;52359;42.658;23.320;2022-11-10T03:22:15;42.35;;;25.75;;
43527;SDS011;52359;42.658;23.320;2022-11-10T03:24:41;43.22;;;26.00;;
43527;SDS011;52359;42.658;23.320;2022-11-10T03:27:07;43.70;;;25.77;;
43527;SDS011;52359;42.658;23.320;2022-11-10T03:29:33;50.55;;;27.77;;
43527;SDS011;52359;42.658;23.320;2022-11-10T03:31:59;43.22;;;26.30;;
43527;SDS011;52359;42.658;23.320;2022-11-10T03:34:25;47.67;;;25.55;;
43527;SDS011;52359;42.658;23.320;2022-11-10T03:36:51;42.10;;;25.02;;
43527;SDS011;52359;42.658;23.320;2022-11-10T03:39:17;45.95;;;25.42;;
43527;SDS011;52359;42.658;23.320;2022-11-10T03:41:43;45.65;;;25.88;;
43527;SDS011;52359;42.658;23.320;2022-11-10T03:44:09;48.90;;;25.95;;
43527;SDS011;52359;42.658;23.320;2022-11-10T03:46:35;42.20;;;26.15;;
43527;SDS011;52359;42.658;23.320;2022-11-10T03:49:01;46.35;;;26.83;;
43527;SDS011;52359;42.658;23.320;2022-11-10T03:51:27;43.03;;;25.77;;
43527;SDS011;52359;42.658;23.320;2022-11-10T03:53:53;46.78;;;24.55;;
43527;SDS011;52359;42.658;23.320;2022-11-10T03:56:19;46.75;;;26.58;;
43527;SDS011;52359;42.658;23.320;2022-11-10T03:58:45;45.17;;;25.27;;
43527;SDS011;52359;42.658;23.320;2022-11-10T04:01:11;42.78;;;25.73;;
43527;SDS011;52359;42.658;23.320;2022-11-10T04:03:37;48.72;;;25.15;;
43527;SDS011;52359;42.658;23.320;2022-11-10T04:06:03;48.75;;;26.00;;
43527;SDS011;52359;42.658;23.320;2022-11-10T04:08:47;45.60;;;25.88;;
43527;SDS011;52359;42.658;23.320;2022-11-10T04:11:23;49.97;;;27.67;;
43527;SDS011;52359;42.658;23.320;2022-11-10T04:14:07;53.92;;;28.17;;
43527;SDS011;52359;42.658;23.320;2022-11-10T04:16:52;47.30;;;26.38;;
43527;SDS011;52359;42.658;23.320;2022-11-10T04:19:18;46.53;;;27.73;;
43527;SDS011;52359;42.658;23.320;2022-11-10T04:21:44;46.10;;;26.25;;
43527;SDS011;52359;42.658;23.320;2022-11-10T04:24:10;43.30;;;25.35;;
43527;SDS011;52359;42.658;23.320;2022-11-10T04:26:36;54.42;;;25.73;;
43527;SDS011;52359;42.658;23.320;2022-11-10T04:29:05;39.47;;;24.38;;
43527;SDS011;52359;42.658;23.320;2022-11-10T04:31:33;44.30;;;25.30;;
43527;SDS011;52359;42.658;23.320;2022-11-10T04:34:01;56.25;;;25.88;;
43527;SDS011;52359;42.658;23.320;2022-11-10T04:36:28;51.65;;;25.63;;
43527;SDS011;52359;42.658;23.320;2022-11-10T04:38:55;45.97;;;24.83;;
43527;SDS011;52359;42.658;23.320;2022-11-10T04:41:21;40.60;;;24.55;;
43527;SDS011;52359;42.658;23.320;2022-11-10T04:43:48;48.92;;;26.48;;
43527;SDS011;52359;42.658;23.320;2022-11-10T04:46:33;46.13;;;25.83;;
43527;SDS011;52359;42.658;23.320;2022-11-10T04:48:59;47.28;;;26.23;;
43527;SDS011;52359;42.658;23.320;2022-11-10T04:51:27;46.33;;;25.63;;
43527;SDS011;52359;42.658;23.320;2022-11-10T04:53:53;46.30;;;26.10;;
43527;SDS011;52359;42.658;23.320;2022-11-10T04:56:20;48.67;;;24.83;;
43527;SDS011;52359;42.658;23.320;2022-11-10T04:58:47;43.85;;;25.60;;
43527;SDS011;52359;42.658;23.320;2022-11-10T05:01:14;53.10;;;27.10;;
43527;SDS011;52359;42.658;23.320;2022-11-10T05:03:40;51.63;;;27.08;;
43527;SDS011;52359;42.658;23.320;2022-11-10T05:06:07;43.78;;;24.85;;
43527;SDS011;52359;42.658;23.320;2022-11-10T05:08:34;44.92;;;24.58;;
43527;SDS011;52359;42.658;23.320;2022-11-10T05:11:00;44.30;;;24.77;;
43527;SDS011;52359;42.658;23.320;2022-11-10T05:13:26;45.70;;;24.27;;
43527;SDS011;52359;42.658;23.320;2022-11-10T05:15:52;46.83;;;25.48;;
43527;SDS011;52359;42.658;23.320;2022-11-10T05:18:18;43.13;;;26.73;;
43527;SDS011;52359;42.658;23.320;2022-11-10T05:20:44;45.55;;;26.17;;
43527;SDS011;52359;42.658;23.320;2022-11-10T05:23:10;52.70;;;27.83;;
43527;SDS011;52359;42.658;23.320;2022-11-10T05:25:59;52.58;;;25.50;;
43527;SDS011;52359;42.658;23.320;2022-11-10T05:28:25;54.00;;;28.50;;
43527;SDS011;52359;42.658;23.320;2022-11-10T05:30:51;42.25;;;26.77;;
43527;SDS011;52359;42.658;23.320;2022-11-10T05:33:17;53.97;;;26.95;;
43527;SDS011;52359;42.658;23.320;2022-11-10T05:35:43;55.88;;;28.63;;
43527;SDS011;52359;42.658;23.320;2022-11-10T05:38:09;59.78;;;28.40;;
43527;SDS011;52359;42.658;23.320;2022-11-10T05:40:35;49.30;;;29.23;;
43527;SDS011;52359;42.658;23.320;2022-11-10T05:43:01;57.95;;;28.95;;
43527;SDS011;52359;42.658;23.320;2022-11-10T05:45:28;50.13;;;29.17;;
43527;SDS011;52359;42.658;23.320;2022-11-10T05:47:54;57.55;;;30.80;;
43527;SDS011;52359;42.658;23.320;2022-11-10T05:50:20;51.80;;;30.67;;
43527;SDS011;52359;42.658;23.320;2022-11-10T05:52:48;49.15;;;30.50;;
43527;SDS011;52359;42.658;23.320;2022-11-10T05:55:15;56.55;;;33.95;;
43527;SDS011;52359;42.658;23.320;2022-11-10T05:57:42;62.95;;;36.13;;
43527;SDS011;52359;42.658;23.320;2022-11-10T06:00:08;53.28;;;32.53;;
43527;SDS011;52359;42.658;23.320;2022-11-10T06:02:34;51.65;;;33.65;;
43527;SDS011;52359;42.658;23.320;2022-11-10T06:05:00;60.85;;;36.33;;
43527;SDS011;52359;42.658;23.320;2022-11-10T06:07:26;75.38;;;39.22;;
43527;SDS011;52359;42.658;23.320;2022-11-10T06:09:52;78.63;;;38.28;;
43527;SDS011;52359;42.658;23.320;2022-11-10T06:12:18;72.07;;;39.03;;
43527;SDS011;52359;42.658;23.320;2022-11-10T06:14:45;65.13;;;39.05;;
43527;SDS011;52359;42.658;23.320;2022-11-10T06:17:11;81.38;;;38.70;;
43527;SDS011;52359;42.658;23.320;2022-11-10T06:19:37;82.05;;;37.90;;
43527;SDS011;52359;42.658;23.320;2022-11-10T06:22:03;85.28;;;37.97;;
43527;SDS011;52359;42.658;23.320;2022-11-10T06:24:29;78.85;;;37.28;;
43527;SDS011;52359;42.658;23.320;2022-11-10T06:26:55;74.50;;;37.53;;
43527;SDS011;52359;42.658;23.320;2022-11-10T06:29:21;70.25;;;37.75;;
43527;SDS011;52359;42.658;23.320;2022-11-10T06:31:47;83.13;;;37.22;;
43527;SDS011;52359;42.658;23.320;2022-11-10T06:34:13;77.28;;;36.22;;
43527;SDS011;52359;42.658;23.320;2022-11-10T06:36:39;80.93;;;36.08;;
43527;SDS011;52359;42.658;23.320;2022-11-10T06:39:05;95.30;;;37.42;;
43527;SDS011;52359;42.658;23.320;2022-11-10T06:41:31;88.25;;;35.85;;
43527;SDS011;52359;42.658;23.320;2022-11-10T06:43:58;65.88;;;33.70;;
43527;SDS011;52359;42.658;23.320;2022-11-10T06:46:24;71.35;;;33.80;;
43527;SDS011;52359;42.658;23.320;2022-11-10T06:48:50;74.63;;;37.85;;
43527;SDS011;52359;42.658;23.320;2022-11-10T06:51:16;71.72;;;36.78;;
43527;SDS011;52359;42.658;23.320;2022-11-10T06:53:42;68.65;;;39.25;;
43527;SDS011;52359;42.658;23.320;2022-11-10T06:56:08;76.90;;;41.97;;
43527;SDS011;52359;42.658;23.320;2022-11-10T06:58:34;84.50;;;41.25;;
43527;SDS011;52359;42.658;23.320;2022-11-10T07:01:00;73.10;;;39.70;;
43527;SDS011;52359;42.658;23.320;2022-11-10T07:03:26;71.25;;;38.85;;
43527;SDS011;52359;42.658;23.320;2022-11-10T07:05:52;84.45;;;40.65;;
43527;SDS011;52359;42.658;23.320;2022-11-10T07:08:18;79.28;;;41.38;;
43527;SDS011;52359;42.658;23.320;2022-11-10T07:10:50;78.65;;;40.80;;
43527;SDS011;52359;42.658;23.320;2022-11-10T07:13:16;85.13;;;41.83;;
43527;SDS011;52359;42.658;23.320;2022-11-10T07:15:43;74.40;;;43.30;;
43527;SDS011;52359;42.658;23.320;2022-11-10T07:18:09;74.57;;;42.42;;
43527;SDS011;52359;42.658;23.320;2022-11-10T07:20:35;77.82;;;43.63;;
43527;SDS011;52359;42.658;23.320;2022-11-10T07:23:05;82.30;;;41.78;;
43527;SDS011;52359;42.658;23.320;2022-11-10T07:25:32;91.32;;;46.38;;
43527;SDS011;52359;42.658;23.320;2022-11-10T07:28:03;90.07;;;43.40;;
43527;SDS011;52359;42.658;23.320;2022-11-10T07:30:30;84.97;;;43.13;;
43527;SDS011;52359;42.658;23.320;2022-11-10T07:32:57;75.97;;;43.05;;
43527;SDS011;52359;42.658;23.320;2022-11-10T07:35:23;99.07;;;44.78;;
43527;SDS011;52359;42.658;23.320;2022-11-10T07:37:52;84.18;;;41.72;;
43527;SDS011;52359;42.658;23.320;2022-11-10T07:40:21;75.32;;;42.38;;
43527;SDS011;52359;42.658;23.320;2022-11-10T07:42:47;84.47;;;43.92;;
43527;SDS011;52359;42.658;23.320;2022-11-10T07:45:13;74.38;;;42.67;;
43527;SDS011;52359;42.658;23.320;2022-11-10T07:47:39;84.30;;;43.40;;
43527;SDS011;52359;42.658;23.320;2022-11-10T07:50:05;72.55;;;43.38;;
43527;SDS011;52359;42.658;23.320;2022-11-10T07:52:31;78.10;;;41.55;;
43527;SDS011;52359;42.658;23.320;2022-11-10T07:54:57;66.10;;;40.10;;
43527;SDS011;52359;42.658;23.320;2022-11-10T07:57:23;66.30;;;37.13;;
43527;SDS011;52359;42.658;23.320;2022-11-10T07:59:49;63.50;;;39.03;;
43527;SDS011;52359;42.658;23.320;2022-11-10T08:02:15;57.38;;;36.45;;
43527;SDS011;52359;42.658;23.320;2022-11-10T08:04:41;67.22;;;38.72;;
43527;SDS011;52359;42.658;23.320;2022-11-10T08:07:07;73.97;;;37.72;;
43527;SDS011;52359;42.658;23.320;2022-11-10T08:09:33;58.17;;;36.15;;
43527;SDS011;52359;42.658;23.320;2022-11-10T08:11:59;64.57;;;37.50;;
43527;SDS011;52359;42.658;23.320;2022-11-10T08:14:25;68.55;;;36.75;;
43527;SDS011;52359;42.658;23.320;2022-11-10T08:16:51;68.90;;;35.78;;
43527;SDS011;52359;42.658;23.320;2022-11-10T08:19:17;54.83;;;36.92;;
43527;SDS011;52359;42.658;23.320;2022-11-10T08:21:43;59.05;;;34.00;;
43527;SDS011;52359;42.658;23.320;2022-11-10T08:24:09;70.13;;;35.95;;
43527;SDS011;52359;42.658;23.320;2022-11-10T08:26:36;56.70;;;33.60;;
43527;SDS011;52359;42.658;23.320;2022-11-10T08:29:02;58.22;;;33.97;;
43527;SDS011;52359;42.658;23.320;2022-11-10T08:31:28;54.42;;;35.70;;
43527;SDS011;52359;42.658;23.320;2022-11-10T08:33:54;64.07;;;36.72;;
43527;SDS011;52359;42.658;23.320;2022-11-10T08:36:20;66.05;;;36.08;;
43527;SDS011;52359;42.658;23.320;2022-11-10T08:38:46;58.42;;;35.83;;
43527;SDS011;52359;42.658;23.320;2022-11-10T08:41:12;58.88;;;35.65;;
43527;SDS011;52359;42.658;23.320;2022-11-10T08:43:38;57.83;;;35.30;;
43527;SDS011;52359;42.658;23.320;2022-11-10T08:46:04;65.63;;;35.40;;
43527;SDS011;52359;42.658;23.320;2022-11-10T08:48:30;55.00;;;35.35;;
43527;SDS011;52359;42.658;23.320;2022-11-10T08:50:57;62.55;;;37.90;;
43527;SDS011;52359;42.658;23.320;2022-11-10T08:53:24;60.85;;;35.88;;
43527;SDS011;52359;42.658;23.320;2022-11-10T08:55:50;58.97;;;36.42;;
43527;SDS011;52359;42.658;23.320;2022-11-10T08:58:20;53.67;;;35.10;;
43527;SDS011;52359;42.658;23.320;2022-11-10T09:00:47;56.28;;;34.90;;
43527;SDS011;52359;42.658;23.320;2022-11-10T09:03:17;58.65;;;35.72;;
43527;SDS011;52359;42.658;23.320;2022-11-10T09:05:43;54.83;;;35.00;;
43527;SDS011;52359;42.658;23.320;2022-11-10T09:08:10;56.10;;;36.38;;
43527;SDS011;52359;42.658;23.320;2022-11-10T09:10:37;55.78;;;35.67;;
43527;SDS011;52359;42.658;23.320;2022-11-10T09:13:04;49.22;;;34.45;;
43527;SDS011;52359;42.658;23.320;2022-11-10T09:15:30;63.95;;;38.65;;
43527;SDS011;52359;42.658;23.320;2022-11-10T09:17:57;59.45;;;39.65;;
43527;SDS011;52359;42.658;23.320;2022-11-10T09:20:23;63.92;;;36.53;;
43527;SDS011;52359;42.658;23.320;2022-11-10T09:22:50;63.33;;;36.63;;
43527;SDS011;52359;42.658;23.320;2022-11-10T09:25:16;62.13;;;36.45;;
43527;SDS011;52359;42.658;23.320;2022-11-10T09:27:42;68.15;;;38.78;;
43527;SDS011;52359;42.658;23.320;2022-11-10T09:30:08;57.88;;;37.22;;
43527;SDS011;52359;42.658;23.320;2022-11-10T09:32:34;55.58;;;38.13;;
43527;SDS011;52359;42.658;23.320;2022-11-10T09:35:00;57.38;;;37.83;;
43527;SDS011;52359;42.658;23.320;2022-11-10T09:37:26;64.55;;;38.42;;
43527;SDS011;52359;42.658;23.320;2022-11-10T09:39:53;67.40;;;39.28;;
43527;SDS011;52359;42.658;23.320;2022-11-10T09:44:53;63.05;;;38.60;;
43527;SDS011;52359;42.658;23.320;2022-11-10T09:47:24;70.40;;;39.88;;
43527;SDS011;52359;42.658;23.320;2022-11-10T09:49:56;64.85;;;40.13;;
43527;SDS011;52359;42.658;23.320;2022-11-10T09:52:24;68.53;;;38.95;;
43527;SDS011;52359;42.658;23.320;2022-11-10T09:54:58;65.13;;;41.35;;
43527;SDS011;52359;42.658;23.320;2022-11-10T09:57:27;60.88;;;38.55;;
43527;SDS011;52359;42.658;23.320;2022-11-10T09:59:54;63.67;;;40.55;;
43527;SDS011;52359;42.658;23.320;2022-11-10T10:02:25;61.65;;;39.25;;
43527;SDS011;52359;42.658;23.320;2022-11-10T10:07:30;51.97;;;37.30;;
43527;SDS011;52359;42.658;23.320;2022-11-10T10:10:10;62.55;;;39.22;;
43527;SDS011;52359;42.658;23.320;2022-11-10T10:17:35;57.83;;;40.88;;
43527;SDS011;52359;42.658;23.320;2022-11-10T10:20:04;64.18;;;39.95;;
43527;SDS011;52359;42.658;23.320;2022-11-10T10:25:13;62.33;;;42.65;;
43527;SDS011;52359;42.658;23.320;2022-11-10T10:27:40;79.78;;;45.30;;
43527;SDS011;52359;42.658;23.320;2022-11-10T10:30:14;70.32;;;41.90;;
43527;SDS011;52359;42.658;23.320;2022-11-10T10:32:40;71.25;;;42.85;;
43527;SDS011;52359;42.658;23.320;2022-11-10T10:35:11;67.70;;;40.47;;
43527;SDS011;52359;42.658;23.320;2022-11-10T10:37:44;56.28;;;38.15;;
43527;SDS011;52359;42.658;23.320;2022-11-10T10:40:14;61.25;;;39.28;;
43527;SDS011;52359;42.658;23.320;2022-11-10T10:42:40;51.42;;;36.00;;
43527;SDS011;52359;42.658;23.320;2022-11-10T10:47:42;52.80;;;35.60;;
43527;SDS011;52359;42.658;23.320;2022-11-10T10:50:28;56.80;;;39.17;;
43527;SDS011;52359;42.658;23.320;2022-11-10T10:53:15;65.30;;;38.72;;
43527;SDS011;52359;42.658;23.320;2022-11-10T11:00:44;63.50;;;38.22;;
43527;SDS011;52359;42.658;23.320;2022-11-10T11:03:12;57.22;;;37.35;;
43527;SDS011;52359;42.658;23.320;2022-11-10T11:05:38;56.08;;;37.85;;
43527;SDS011;52359;42.658;23.320;2022-11-10T11:08:04;58.38;;;37.95;;
43527;SDS011;52359;42.658;23.320;2022-11-10T11:10:31;58.63;;;37.78;;
43527;SDS011;52359;42.658;23.320;2022-11-10T11:15:42;52.05;;;35.70;;
43527;SDS011;52359;42.658;23.320;2022-11-10T11:18:20;63.45;;;36.88;;
43527;SDS011;52359;42.658;23.320;2022-11-10T11:20:49;58.58;;;34.40;;
43527;SDS011;52359;42.658;23.320;2022-11-10T11:25:47;51.95;;;34.72;;
43527;SDS011;52359;42.658;23.320;2022-11-10T11:28:25;56.45;;;35.03;;
43527;SDS011;52359;42.658;23.320;2022-11-10T11:33:31;50.88;;;33.50;;
43527;SDS011;52359;42.658;23.320;2022-11-10T11:51:46;54.38;;;33.80;;
43527;SDS011;52359;42.658;23.320;2022-11-10T11:56:43;69.57;;;34.63;;
43527;SDS011;52359;42.658;23.320;2022-11-10T12:04:34;58.78;;;38.13;;
43527;SDS011;52359;42.658;23.320;2022-11-10T12:07:10;54.15;;;34.17;;
43527;SDS011;52359;42.658;23.320;2022-11-10T12:09:44;93.57;;;49.75;;
43527;SDS011;52359;42.658;23.320;2022-11-10T12:17:21;49.55;;;33.83;;
43527;SDS011;52359;42.658;23.320;2022-11-10T12:19:55;51.75;;;32.75;;
43527;SDS011;52359;42.658;23.320;2022-11-10T12:27:48;58.78;;;33.13;;
43527;SDS011;52359;42.658;23.320;2022-11-10T12:30:16;49.80;;;32.95;;
43527;SDS011;52359;42.658;23.320;2022-11-10T12:35:21;43.22;;;32.75;;
43527;SDS011;52359;42.658;23.320;2022-11-10T12:40:16;44.63;;;31.38;;
43527;SDS011;52359;42.658;23.320;2022-11-10T12:42:43;53.45;;;31.85;;
43527;SDS011;52359;42.658;23.320;2022-11-10T12:45:21;52.03;;;32.00;;
43527;SDS011;52359;42.658;23.320;2022-11-10T12:47:48;51.88;;;32.42;;
43527;SDS011;52359;42.658;23.320;2022-11-10T12:52:42;51.17;;;32.15;;
43527;SDS011;52359;42.658;23.320;2022-11-10T12:55:11;54.47;;;32.70;;
43527;SDS011;52359;42.658;23.320;2022-11-10T12:57:37;49.75;;;32.78;;
43527;SDS011;52359;42.658;23.320;2022-11-10T13:00:05;43.97;;;31.63;;
43527;SDS011;52359;42.658;23.320;2022-11-10T13:02:38;46.50;;;31.95;;
43527;SDS011;52359;42.658;23.320;2022-11-10T13:07:44;47.22;;;32.42;;
43527;SDS011;52359;42.658;23.320;2022-11-10T13:10:20;48.30;;;30.00;;
43527;SDS011;52359;42.658;23.320;2022-11-10T13:18:09;50.78;;;33.15;;
43527;SDS011;52359;42.658;23.320;2022-11-10T13:25:52;50.35;;;29.77;;
43527;SDS011;52359;42.658;23.320;2022-11-10T13:36:45;56.42;;;31.50;;
43527;SDS011;52359;42.658;23.320;2022-11-10T13:39:20;55.17;;;32.53;;
43527;SDS011;52359;42.658;23.320;2022-11-10T13:41:48;47.28;;;30.17;;
43527;SDS011;52359;42.658;23.320;2022-11-10T13:44:19;51.25;;;29.13;;
43527;SDS011;52359;42.658;23.320;2022-11-10T13:46:52;59.35;;;32.85;;
43527;SDS011;52359;42.658;23.320;2022-11-10T13:49:23;54.95;;;32.60;;
43527;SDS011;52359;42.658;23.320;2022-11-10T13:51:53;53.10;;;34.90;;
43527;SDS011;52359;42.658;23.320;2022-11-10T13:59:33;50.33;;;33.35;;
43527;SDS011;52359;42.658;23.320;2022-11-10T14:04:53;45.85;;;32.65;;
43527;SDS011;52359;42.658;23.320;2022-11-10T14:07:19;50.42;;;29.52;;
43527;SDS011;52359;42.658;23.320;2022-11-10T14:09:54;42.78;;;28.25;;
43527;SDS011;52359;42.658;23.320;2022-11-10T14:12:23;57.88;;;30.70;;
43527;SDS011;52359;42.658;23.320;2022-11-10T14:17:17;43.72;;;28.48;;
43527;SDS011;52359;42.658;23.320;2022-11-10T14:19:44;51.20;;;29.63;;
43527;SDS011;52359;42.658;23.320;2022-11-10T14:24:38;54.20;;;30.00;;
43527;SDS011;52359;42.658;23.320;2022-11-10T14:27:11;78.70;;;31.90;;
43527;SDS011;52359;42.658;23.320;2022-11-10T14:29:39;57.80;;;31.55;;
43527;SDS011;52359;42.658;23.320;2022-11-10T14:32:19;64.97;;;32.13;;
43527;SDS011;52359;42.658;23.320;2022-11-10T14:34:47;72.07;;;30.73;;
43527;SDS011;52359;42.658;23.320;2022-11-10T14:37:14;48.95;;;25.33;;
43527;SDS011;52359;42.658;23.320;2022-11-10T14:39:42;40.80;;;24.80;;
43527;SDS011;52359;42.658;23.320;2022-11-10T14:42:11;52.90;;;27.60;;
43527;SDS011;52359;42.658;23.320;2022-11-10T14:44:39;57.45;;;25.75;;
43527;SDS011;52359;42.658;23.320;2022-11-10T14:49:40;61.08;;;25.38;;
43527;SDS011;52359;42.658;23.320;2022-11-10T14:52:07;46.92;;;24.42;;
43527;SDS011;52359;42.658;23.320;2022-11-10T14:54:36;51.33;;;25.88;;
43527;SDS011;52359;42.658;23.320;2022-11-10T14:57:02;55.92;;;24.38;;
43527;SDS011;52359;42.658;23.320;2022-11-10T14:59:30;54.83;;;24.75;;
43527;SDS011;52359;42.658;23.320;2022-11-10T15:01:57;78.45;;;29.45;;
43527;SDS011;52359;42.658;23.320;2022-11-10T15:04:30;61.63;;;25.02;;
43527;SDS011;52359;42.658;23.320;2022-11-10T15:06:56;64.68;;;24.95;;
43527;SDS011;52359;42.658;23.320;2022-11-10T15:09:25;56.47;;;23.65;;
43527;SDS011;52359;42.658;23.320;2022-11-10T15:11:53;60.97;;;24.35;;
43527;SDS011;52359;42.658;23.320;2022-11-10T15:24:41;44.55;;;22.67;;
43527;SDS011;52359;42.658;23.320;2022-11-10T15:27:23;52.47;;;22.33;;
43527;SDS011;52359;42.658;23.320;2022-11-10T15:29:50;66.00;;;22.70;;
43527;SDS011;52359;42.658;23.320;2022-11-10T15:32:17;64.57;;;25.73;;
43527;SDS011;52359;42.658;23.320;2022-11-10T15:34:45;68.47;;;27.08;;
43527;SDS011;52359;42.658;23.320;2022-11-10T15:39:43;70.63;;;26.37;;
43527;SDS011;52359;42.658;23.320;2022-11-10T15:42:13;74.60;;;25.50;;
43527;SDS011;52359;42.658;23.320;2022-11-10T15:44:43;72.28;;;24.55;;
43527;SDS011;52359;42.658;23.320;2022-11-10T15:47:09;63.25;;;23.63;;
43527;SDS011;52359;42.658;23.320;2022-11-10T15:49:36;64.45;;;23.10;;
43527;SDS011;52359;42.658;23.320;2022-11-10T15:52:04;55.58;;;22.73;;
43527;SDS011;52359;42.658;23.320;2022-11-10T15:54:32;66.93;;;22.95;;
43527;SDS011;52359;42.658;23.320;2022-11-10T15:56:58;53.88;;;23.27;;
43527;SDS011;52359;42.658;23.320;2022-11-10T15:59:24;63.97;;;22.25;;
43527;SDS011;52359;42.658;23.320;2022-11-10T16:01:50;72.03;;;23.27;;
43527;SDS011;52359;42.658;23.320;2022-11-10T16:04:16;55.38;;;23.67;;
43527;SDS011;52359;42.658;23.320;2022-11-10T16:06:42;63.38;;;22.17;;
43527;SDS011;52359;42.658;23.320;2022-11-10T16:09:10;58.78;;;24.65;;
43527;SDS011;52359;42.658;23.320;2022-11-10T16:11:37;71.20;;;25.58;;
43527;SDS011;52359;42.658;23.320;2022-11-10T16:14:03;71.25;;;26.67;;
43527;SDS011;52359;42.658;23.320;2022-11-10T16:16:30;78.50;;;25.70;;
43527;SDS011;52359;42.658;23.320;2022-11-10T16:18:56;64.28;;;27.48;;